createdAt,value
2023-03-18T00:02:32.426Z,99685.84
2023-03-18T00:07:36.043Z,99681.34
2023-03-18T00:12:39.736Z,99696.75
2023-03-18T00:17:44.098Z,99698.81
2023-03-18T00:22:46.849Z,99704.88
2023-03-18T00:27:49.945Z,99709.72
2023-03-18T00:32:54.205Z,99712.72
2023-03-18T00:37:58.404Z,99709.16
2023-03-18T00:43:08.079Z,99709.09
2023-03-18T00:48:12.255Z,99718.69
2023-03-18T00:53:15.343Z,99714.78
2023-03-18T00:58:18.164Z,99709.38
2023-03-18T01:03:25.712Z,99713.56
2023-03-18T01:08:29.881Z,99716.16
2023-03-18T01:13:33.128Z,99705.78
2023-03-18T01:18:38.189Z,99704.91
2023-03-18T01:23:42.348Z,99704.75
2023-03-18T01:28:45.717Z,99691.13
2023-03-18T01:33:51.010Z,99702.97
2023-03-18T01:38:53.896Z,99697.28
2023-03-18T01:43:56.809Z,99692.59
2023-03-18T01:49:03.935Z,99688.72
2023-03-18T01:54:08.845Z,99702.69
2023-03-18T01:59:12.445Z,99686.94
2023-03-18T02:04:17.685Z,99687.69
2023-03-18T02:09:20.602Z,99690.56
2023-03-18T02:14:27.709Z,99693.25
2023-03-18T02:19:46.270Z,99703.91
2023-03-18T02:25:00.748Z,99699.84
2023-03-18T02:30:09.303Z,99688.59
2023-03-18T02:35:14.079Z,99692.44
2023-03-18T02:40:19.588Z,99684.72
2023-03-18T02:45:39.498Z,99687.81
2023-03-18T02:50:50.204Z,99705.34
2023-03-18T02:55:53.106Z,99703.22
2023-03-18T03:00:58.458Z,99705.47
2023-03-18T03:06:01.964Z,99715.94
2023-03-18T03:11:05.542Z,99719.31
2023-03-18T03:16:13.997Z,99709.13
2023-03-18T03:21:17.021Z,99705.72
2023-03-18T03:26:20.459Z,99712.47
2023-03-18T03:31:27.264Z,99714.31
2023-03-18T03:36:30.192Z,99713.59
2023-03-18T03:41:33.960Z,99711.06
2023-03-18T03:46:38.322Z,99723.38
2023-03-18T03:51:41.737Z,99718.50
2023-03-18T03:56:44.565Z,99721.66
2023-03-18T04:01:48.963Z,99709.63
2023-03-18T04:06:51.743Z,99724.88
2023-03-18T04:11:54.713Z,99725.03
2023-03-18T04:17:00.397Z,99729.66
2023-03-18T04:22:04.638Z,99728.09
2023-03-18T04:27:08.302Z,99717.91
2023-03-18T04:32:12.801Z,99730.13
2023-03-18T04:37:19.791Z,99751.84
2023-03-18T04:42:24.792Z,99748.91
2023-03-18T04:47:29.133Z,99752.31
2023-03-18T04:52:33.612Z,99756.03
2023-03-18T04:57:38.409Z,99759.91
2023-03-18T05:02:45.593Z,99757.63
2023-03-18T05:07:48.676Z,99756.69
2023-03-18T05:12:54.434Z,99760.34
2023-03-18T05:18:06.547Z,99766.44
2023-03-18T05:23:10.451Z,99767.69
2023-03-18T05:28:23.781Z,99770.09
2023-03-18T05:33:43.744Z,99769.66
2023-03-18T05:38:48.627Z,99771.84
2023-03-18T05:43:51.726Z,99771.66
2023-03-18T05:48:56.565Z,99771.09
2023-03-18T05:54:05.075Z,99772.41
2023-03-18T05:59:16.284Z,99785.38
2023-03-18T06:04:28.073Z,99799.97
2023-03-18T06:09:30.954Z,99802.75
2023-03-18T06:14:34.307Z,99808.19
2023-03-18T06:19:40.192Z,99812.44
2023-03-18T06:24:46.547Z,99808.97
2023-03-18T06:29:52.344Z,99806.16
2023-03-18T06:34:57.176Z,99813.31
2023-03-18T06:40:00.278Z,99824.34
2023-03-18T06:45:03.763Z,99822.81
2023-03-18T06:50:20.625Z,99826.34
2023-03-18T06:55:23.867Z,99830.94
2023-03-18T07:00:27.931Z,99831.53
2023-03-18T07:05:33.013Z,99837.59
2023-03-18T07:10:36.421Z,99842.97
2023-03-18T07:15:45.379Z,99839.16
2023-03-18T07:20:50.511Z,99840.69
2023-03-18T07:25:53.428Z,99850.38
2023-03-18T07:30:56.507Z,99857.81
2023-03-18T07:36:01.098Z,99862.63
2023-03-18T07:41:05.260Z,99869.75
2023-03-18T07:46:08.178Z,99874.53
2023-03-18T07:51:12.328Z,99880.22
2023-03-18T07:56:15.057Z,99893.09
2023-03-18T08:01:19.456Z,99891.56
2023-03-18T08:06:23.979Z,99899.91
2023-03-18T08:11:26.958Z,99901.44
2023-03-18T08:16:29.796Z,99917.00
2023-03-18T08:21:33.983Z,99914.19
2023-03-18T08:26:36.913Z,99921.97
2023-03-18T08:31:39.816Z,99918.16
2023-03-18T08:36:45.046Z,99920.91
2023-03-18T08:41:48.705Z,99916.84
2023-03-18T08:46:51.535Z,99920.41
2023-03-18T08:51:56.608Z,99933.28
2023-03-18T08:57:00.572Z,99920.88
2023-03-18T09:02:03.456Z,99937.59
2023-03-18T09:07:07.662Z,99942.72
2023-03-18T09:12:11.889Z,99942.97
2023-03-18T09:17:14.709Z,99954.59
2023-03-18T09:22:19.178Z,99959.56
2023-03-18T09:27:21.990Z,99977.72
2023-03-18T09:32:24.696Z,99964.25
2023-03-18T09:37:28.910Z,99965.13
2023-03-18T09:42:45.900Z,99954.88
2023-03-18T09:48:02.183Z,99960.47
2023-03-18T09:53:22.429Z,99969.63
2023-03-18T09:58:29.187Z,99979.13
2023-03-18T10:03:38.066Z,99979.75
2023-03-18T10:08:53.614Z,99988.34
2023-03-18T10:14:18.400Z,99989.22
2023-03-18T10:19:21.131Z,99990.19
2023-03-18T10:24:33.910Z,99999.06
2023-03-18T10:29:42.901Z,99997.09
2023-03-18T10:34:58.097Z,99994.50
2023-03-18T10:40:03.353Z,100007.56
2023-03-18T10:45:17.214Z,100014.19
2023-03-18T10:50:25.381Z,100007.16
2023-03-18T10:55:34.337Z,100023.84
2023-03-18T11:00:37.367Z,100015.03
2023-03-18T11:05:40.286Z,99997.16
2023-03-18T11:10:48.080Z,100003.56
2023-03-18T11:15:52.886Z,100012.31
2023-03-18T11:21:00.598Z,100011.16
2023-03-18T11:26:09.416Z,100007.81
2023-03-18T11:31:18.776Z,100018.22
2023-03-18T11:36:24.974Z,100013.63
2023-03-18T11:41:30.321Z,99995.47
2023-03-18T11:46:38.651Z,100005.34
2023-03-18T11:51:48.453Z,99983.34
2023-03-18T11:56:57.237Z,99990.31
2023-03-18T12:02:14.108Z,99985.28
2023-03-18T12:07:31.259Z,99995.19
2023-03-18T12:12:49.655Z,100008.44
2023-03-18T12:18:02.651Z,99990.22
2023-03-18T12:23:11.928Z,99992.00
2023-03-18T12:28:32.727Z,99987.00
2023-03-18T12:33:51.844Z,99982.13
2023-03-18T12:39:09.966Z,99968.00
2023-03-18T12:44:24.164Z,99976.22
2023-03-18T12:49:33.963Z,99974.38
2023-03-18T12:54:42.892Z,99967.09
2023-03-18T12:59:53.721Z,99958.38
2023-03-18T13:05:00.698Z,99949.63
2023-03-18T13:10:09.863Z,99933.75
2023-03-18T13:15:24.554Z,99939.78
2023-03-18T13:20:31.722Z,99958.41
2023-03-18T13:25:41.841Z,99958.00
2023-03-18T13:31:00.757Z,99963.91
2023-03-18T13:36:40.628Z,99967.63
2023-03-18T13:41:59.021Z,99956.22
2023-03-18T13:47:07.350Z,99953.16
2023-03-18T13:52:25.499Z,99967.63
2023-03-18T13:57:36.143Z,99965.81
2023-03-18T14:02:47.978Z,99970.16
2023-03-18T14:07:50.810Z,99965.22
2023-03-18T14:12:53.669Z,99954.41
2023-03-18T14:17:59.125Z,99961.03
2023-03-18T14:23:25.067Z,99954.03
2023-03-18T14:28:28.565Z,99947.72
2023-03-18T14:33:48.385Z,99956.13
2023-03-18T14:39:01.865Z,99963.50
2023-03-18T14:44:12.494Z,99949.41
2023-03-18T14:49:39.872Z,99947.91
2023-03-18T14:54:45.872Z,99936.41
2023-03-18T14:59:48.685Z,99931.06
2023-03-18T15:04:55.404Z,99925.59
2023-03-18T15:09:58.924Z,99920.66
2023-03-18T15:15:01.698Z,99922.00
2023-03-18T15:20:07.010Z,99915.88
2023-03-18T15:25:18.753Z,99906.91
2023-03-18T15:30:26.522Z,99902.56
2023-03-18T15:35:31.968Z,99896.84
2023-03-18T15:40:36.647Z,99890.38
2023-03-18T15:45:45.717Z,99888.78
2023-03-18T15:50:56.160Z,99893.88
2023-03-18T15:56:08.407Z,99897.50
2023-03-18T16:01:17.168Z,99889.97
2023-03-18T16:06:22.707Z,99895.97
2023-03-18T16:11:26.171Z,99899.38
2023-03-18T16:16:30.531Z,99894.28
2023-03-18T16:21:34.682Z,99897.72
2023-03-18T16:26:37.873Z,99897.03
2023-03-18T16:31:40.822Z,99899.59
2023-03-18T16:36:45.942Z,99898.75
2023-03-18T16:41:49.650Z,99895.56
2023-03-18T16:46:54.886Z,99895.25
2023-03-18T16:51:59.247Z,99905.91
2023-03-18T16:57:04.589Z,99895.25
2023-03-18T17:02:25.520Z,99890.25
2023-03-18T17:07:29.737Z,99898.53
2023-03-18T17:12:32.508Z,99907.78
2023-03-18T17:17:36.717Z,99915.91
2023-03-18T17:22:40.998Z,99908.78
2023-03-18T17:27:46.208Z,99907.22
2023-03-18T17:32:50.134Z,99909.75
2023-03-18T17:37:54.566Z,99918.31
2023-03-18T17:42:57.561Z,99913.94
2023-03-18T17:48:15.955Z,99923.38
2023-03-18T17:53:30.803Z,99927.25
2023-03-18T17:58:34.929Z,99977.97
2023-03-18T18:03:40.389Z,100002.13
2023-03-18T18:08:44.756Z,100016.06
2023-03-18T18:13:48.131Z,100010.31
2023-03-18T18:18:51.517Z,100024.16
2023-03-18T18:23:56.069Z,100017.47
2023-03-18T18:28:58.835Z,100024.97
2023-03-18T18:34:01.744Z,100018.34
2023-03-18T18:39:06.291Z,100016.47
2023-03-18T18:44:09.361Z,100031.50
2023-03-18T18:49:21.955Z,100033.81
2023-03-18T18:54:26.114Z,100026.88
2023-03-18T18:59:31.854Z,100017.81
2023-03-18T19:04:34.860Z,100008.03
2023-03-18T19:09:46.422Z,100016.22
2023-03-18T19:14:49.356Z,100024.63
2023-03-18T19:19:53.704Z,100025.97
2023-03-18T19:24:58.695Z,100033.88
2023-03-18T19:30:05.419Z,100018.75
2023-03-18T19:35:11.021Z,100015.66
2023-03-18T19:40:24.323Z,100027.41
2023-03-18T19:45:27.260Z,100028.22
2023-03-18T19:50:29.983Z,100022.59
2023-03-18T19:55:34.112Z,100018.91
2023-03-18T20:00:36.856Z,100014.69
2023-03-18T20:05:39.616Z,100021.56
2023-03-18T20:10:44.667Z,100027.22
2023-03-18T20:15:48.884Z,100037.78
2023-03-18T20:20:52.440Z,100028.88
2023-03-18T20:25:57.061Z,100035.94
2023-03-18T20:31:00.808Z,100027.28
2023-03-18T20:36:04.177Z,100030.53
2023-03-18T20:41:08.303Z,100033.06
2023-03-18T20:46:14.212Z,100033.53
2023-03-18T20:51:22.149Z,100037.84
2023-03-18T20:56:27.563Z,100027.66
2023-03-18T21:01:30.392Z,100037.38
2023-03-18T21:06:33.203Z,100039.41
2023-03-18T21:11:38.620Z,100037.81
2023-03-18T21:16:41.668Z,100029.88
2023-03-18T21:21:44.463Z,100039.06
2023-03-18T21:27:03.130Z,100035.78
2023-03-18T21:32:07.328Z,100032.16
2023-03-18T21:37:15.960Z,100035.59
2023-03-18T21:42:24.206Z,100039.53
2023-03-18T21:47:27.395Z,100023.53
2023-03-18T21:52:33.341Z,100025.19
2023-03-18T21:57:37.976Z,100029.09
2023-03-18T22:02:41.109Z,100033.50
2023-03-18T22:07:43.926Z,100034.34
2023-03-18T22:12:48.141Z,100033.50
2023-03-18T22:17:51.980Z,100025.56
2023-03-18T22:22:55.104Z,100026.81
2023-03-18T22:28:00.385Z,100028.66
2023-03-18T22:33:05.416Z,100028.38
2023-03-18T22:38:12.159Z,100033.75
2023-03-18T22:43:29.364Z,100036.81
2023-03-18T22:48:32.888Z,100029.75
2023-03-18T22:53:38.003Z,100035.38
2023-03-18T22:58:42.456Z,100032.19
2023-03-18T23:03:46.858Z,100025.94
2023-03-18T23:08:49.645Z,100024.53
2023-03-18T23:13:53.879Z,100033.09
2023-03-18T23:18:56.621Z,100022.63
2023-03-18T23:23:59.332Z,100026.41
2023-03-18T23:29:03.657Z,100027.63
2023-03-18T23:34:06.670Z,100026.81
2023-03-18T23:39:09.412Z,100026.34
2023-03-18T23:44:13.486Z,100023.53
2023-03-18T23:49:16.586Z,100029.25
2023-03-18T23:54:19.308Z,100030.88
2023-03-18T23:59:23.769Z,100027.81
